Nestor — V2FB3 — position and weather

sailwx.info

Track history (hours):
 
Tides and Currents Weather Stations Pressure Air Temp Water Temp Dewpoint Dewpoint Depression Visibility Wind Speed Wind Dir Waves Ship Positions

Nestor

Last reported at 2014-Dec-19 18:30 UTC. Time now 2014-Dec-20 07:17 UTC.
Position N 36°38' E 023°44'.

Length 88 m; draft 5.4 m.

Type: Cargo ship. MMSI: 305620000.

Date/timePositionNaut miles runAvg speedWind from/ knotsBaromVisibWave heightAir tempDewpointWater temp
2014-Dec-19 18:30N 36°38' E 023°44'37 8.5
2014-Dec-19 14:11N 36°59' E 024°22'6 8.2
2014-Dec-19 13:28N 37°02' E 024°28'7 8.2
2014-Dec-19 12:33N 37°06' E 024°36'8 8.0
2014-Dec-19 11:33N 37°10' E 024°44'8 8.5
2014-Dec-19 10:33N 37°16' E 024°53'9 8.6
2014-Dec-19 09:33N 37°21' E 025°01'4 3.9
2014-Dec-19 08:31N 37°25' E 024°58'0 0.0
2014-Dec-19 07:31N 37°25' E 024°58'0 0.0
2014-Dec-19 06:31N 37°25' E 024°58'0 0.1
2014-Dec-19 05:33N 37°25' E 024°58'3 2.4
2014-Dec-19 04:25N 37°24' E 025°02'4 4.9
2014-Dec-19 03:33N 37°22' E 025°07'7 7.0
2014-Dec-19 02:33N 37°20' E 025°15'8 7.8
2014-Dec-19 01:33N 37°20' E 025°25'16 7.9
2014-Dec-18 23:29N 37°18' E 025°45'8 8.2
2014-Dec-18 22:33N 37°17' E 025°54'10 8.5
2014-Dec-18 21:25N 37°17' E 026°07'9 7.8
2014-Dec-18 20:19N 37°16' E 026°17'  
2014-Dec-12 13:21N 35°45' E 025°45'9 8.0
2014-Dec-12 12:11N 35°50' E 025°35'5 7.8
2014-Dec-12 11:33N 35°52' E 025°30'8 7.7
2014-Dec-12 10:33N 35°57' E 025°22'8 7.5
2014-Dec-12 09:34N 36°01' E 025°14'8 7.6
2014-Dec-12 08:34N 36°05' E 025°07'9 7.5
2014-Dec-12 07:20N 36°10' E 024°57'6 7.1
2014-Dec-12 06:34N 36°13' E 024°52'7 6.9
2014-Dec-12 05:33N 36°17' E 024°45'7 6.8
2014-Dec-12 04:33N 36°21' E 024°37'7 7.1
2014-Dec-12 03:33N 36°25' E 024°30'7 7.3
2014-Dec-12 02:34N 36°29' E 024°22'8 7.6
2014-Dec-12 01:33N 36°33' E 024°15'8 8.1
2014-Dec-12 00:33N 36°40' E 024°11'9 8.5
2014-Dec-11 23:32N 36°48' E 024°07'9 8.7
2014-Dec-11 22:33N 36°57' E 024°04'47 7.9
2014-Dec-11 16:32N 37°41' E 023°41'8 8.5
2014-Dec-11 15:33N 37°48' E 023°37'8 8.3
2014-Dec-11 14:33N 37°50' E 023°27'  
Track history (hours):
 
Tides and Currents Weather Stations Pressure Air Temp Water Temp Dewpoint Dewpoint Depression Visibility Wind Speed Wind Dir Waves Ship Positions

Nestor

Last reported at 2014-Dec-19 18:30 UTC. Time now 2014-Dec-20 07:17 UTC.
Position N 36°38' E 023°44'.

Length 88 m; draft 5.4 m.

Type: Cargo ship. MMSI: 305620000.

Date/timePositionNaut miles runAvg speedWind from/ knotsBaromVisibWave heightAir tempDewpointWater temp
2014-Dec-19 18:30N 36°38' E 023°44'37 8.5
2014-Dec-19 14:11N 36°59' E 024°22'6 8.2
2014-Dec-19 13:28N 37°02' E 024°28'7 8.2
2014-Dec-19 12:33N 37°06' E 024°36'8 8.0
2014-Dec-19 11:33N 37°10' E 024°44'8 8.5
2014-Dec-19 10:33N 37°16' E 024°53'9 8.6
2014-Dec-19 09:33N 37°21' E 025°01'4 3.9
2014-Dec-19 08:31N 37°25' E 024°58'0 0.0
2014-Dec-19 07:31N 37°25' E 024°58'0 0.0
2014-Dec-19 06:31N 37°25' E 024°58'0 0.1
2014-Dec-19 05:33N 37°25' E 024°58'3 2.4
2014-Dec-19 04:25N 37°24' E 025°02'4 4.9
2014-Dec-19 03:33N 37°22' E 025°07'7 7.0
2014-Dec-19 02:33N 37°20' E 025°15'8 7.8
2014-Dec-19 01:33N 37°20' E 025°25'16 7.9
2014-Dec-18 23:29N 37°18' E 025°45'8 8.2
2014-Dec-18 22:33N 37°17' E 025°54'10 8.5
2014-Dec-18 21:25N 37°17' E 026°07'9 7.8
2014-Dec-18 20:19N 37°16' E 026°17'  
2014-Dec-12 13:21N 35°45' E 025°45'9 8.0
2014-Dec-12 12:11N 35°50' E 025°35'5 7.8
2014-Dec-12 11:33N 35°52' E 025°30'8 7.7
2014-Dec-12 10:33N 35°57' E 025°22'8 7.5
2014-Dec-12 09:34N 36°01' E 025°14'8 7.6
2014-Dec-12 08:34N 36°05' E 025°07'9 7.5
2014-Dec-12 07:20N 36°10' E 024°57'6 7.1
2014-Dec-12 06:34N 36°13' E 024°52'7 6.9
2014-Dec-12 05:33N 36°17' E 024°45'7 6.8
2014-Dec-12 04:33N 36°21' E 024°37'7 7.1
2014-Dec-12 03:33N 36°25' E 024°30'7 7.3
2014-Dec-12 02:34N 36°29' E 024°22'8 7.6
2014-Dec-12 01:33N 36°33' E 024°15'8 8.1
2014-Dec-12 00:33N 36°40' E 024°11'9 8.5
2014-Dec-11 23:32N 36°48' E 024°07'9 8.7
2014-Dec-11 22:33N 36°57' E 024°04'47 7.9
2014-Dec-11 16:32N 37°41' E 023°41'8 8.5
2014-Dec-11 15:33N 37°48' E 023°37'8 8.3
2014-Dec-11 14:33N 37°50' E 023°27'  

Dump ship's entire track history